Time;durP1;ratioP1;P1;durP2;ratioP2;P2;SDS_P1;SDS_P2;PMS_P1;PMS_P2;Temp;Humidity;BMP_temperature;BMP_pressure;BME280_temperature;BME280_humidity;BME280_pressure;Samples;Min_cycle;Max_cycle;Signal;HPM_P1;HPM_P2
2022/05/17 00:00:09;;;;;;;;;;;;;;;13.65;100.00;101946.47;2612576;36;20404;-52
2022/05/17 00:02:37;;;;;;;;;;;;;;;13.74;100.00;101950.22;2612832;36;19950;-49
2022/05/17 00:05:05;;;;;;;;;;;;;;;13.75;100.00;101951.94;2613202;36;20057;-47
2022/05/17 00:07:33;;;;;;;;;;;;;;;13.69;100.00;101947.03;2612804;36;20324;-49
2022/05/17 00:10:04;;;;;;;;;;;;;;;13.73;100.00;101948.50;2612495;31;20079;-52
2022/05/17 00:12:32;;;;;;;;;;;;;;;13.45;100.00;101948.13;2612597;36;20535;-50
2022/05/17 00:15:00;;;;;;;;;;;;;;;13.52;100.00;101946.63;2613001;36;20161;-51
2022/05/17 00:17:28;;;;;;;;;;;;;;;13.55;100.00;101946.38;2611281;36;19993;-52
2022/05/17 00:19:56;;;;;;;;;;;;;;;13.50;100.00;101954.03;2612650;36;20037;-50
2022/05/17 00:22:24;;;;;;;;;;;;;;;13.54;100.00;101952.75;2611446;36;20005;-51
2022/05/17 00:24:52;;;;;;;;;;;;;;;13.44;100.00;101947.28;2590573;36;19973;-48
2022/05/17 00:27:23;;;;;;;;;;;;;;;13.52;100.00;101957.44;2610722;36;20498;-49
2022/05/17 00:29:51;;;;;;;;;;;;;;;13.49;100.00;101953.16;2611629;36;19948;-51
2022/05/17 00:32:19;;;;;;;;;;;;;;;13.50;100.00;101951.31;2612775;36;19981;-50
2022/05/17 00:34:48;;;;;;;;;;;;;;;13.55;100.00;101951.78;2612664;31;20038;-48
2022/05/17 00:37:16;;;;;;;;;;;;;;;13.58;100.00;101951.50;2612566;36;20050;-51
2022/05/17 00:39:44;;;;;;;;;;;;;;;13.61;100.00;101955.81;2612930;36;20475;-48
2022/05/17 00:42:13;;;;;;;;;;;;;;;13.50;100.00;101943.22;2612311;31;20080;-53
2022/05/17 00:44:47;;;;;;;;;;;;;;;13.65;100.00;101946.47;2613004;36;19957;-55
2022/05/17 00:47:19;;;;;;;;;;;;;;;13.51;100.00;101958.44;2613143;36;20066;-48
2022/05/17 00:49:51;;;;;;;;;;;;;;;13.56;100.00;101950.81;2612276;36;20458;-47
2022/05/17 00:52:22;;;;;;;;;;;;;;;13.47;100.00;101954.25;2612376;36;19946;-48
2022/05/17 00:54:50;;;;;;;;;;;;;;;13.33;100.00;101958.94;2613028;36;20070;-47
2022/05/17 00:57:23;;;;;;;;;;;;;;;13.18;100.00;101951.25;2612415;36;20074;-49
2022/05/17 00:59:54;;;;;;;;;;;;;;;13.20;100.00;101943.88;2612747;36;20041;-52
2022/05/17 01:02:22;;;;;;;;;;;;;;;13.15;100.00;101950.50;2613057;36;20069;-49
2022/05/17 01:04:50;;;;;;;;;;;;;;;13.12;100.00;101949.91;2613013;36;20058;-53
2022/05/17 01:07:20;;;;;;;;;;;;;;;13.20;100.00;101947.41;2612068;36;20061;-50
2022/05/17 01:09:48;;;;;;;;;;;;;;;13.10;100.00;101944.63;2613356;31;20034;-50
2022/05/17 01:12:16;;;;;;;;;;;;;;;13.10;100.00;101941.94;2612559;36;19947;-47
2022/05/17 01:14:57;;;;;;;;;;;;;;;13.10;100.00;101941.06;2613373;31;20104;-50
2022/05/17 01:17:28;;;;;;;;;;;;;;;13.09;100.00;101945.63;2612003;36;19946;-50
2022/05/17 01:19:56;;;;;;;;;;;;;;;13.06;100.00;101947.69;2612906;36;20613;-52
2022/05/17 01:22:27;;;;;;;;;;;;;;;13.10;100.00;101947.34;2612450;36;20074;-49
2022/05/17 01:24:55;;;;;;;;;;;;;;;13.06;100.00;101947.69;2612373;36;20077;-50
2022/05/17 01:27:27;;;;;;;;;;;;;;;13.03;100.00;101945.25;2612276;31;19946;-47
2022/05/17 01:29:56;;;;;;;;;;;;;;;12.96;100.00;101943.03;2612997;36;19946;-49
2022/05/17 01:32:24;;;;;;;;;;;;;;;12.93;100.00;101946.00;2612921;36;19955;-48
2022/05/17 01:34:52;;;;;;;;;;;;;;;12.95;100.00;101945.88;2613136;36;19970;-48
2022/05/17 01:37:21;;;;;;;;;;;;;;;12.94;100.00;101947.72;2613357;36;19977;-48
2022/05/17 01:39:51;;;;;;;;;;;;;;;12.85;100.00;101955.72;2613557;36;19950;-52
2022/05/17 01:42:19;;;;;;;;;;;;;;;12.73;100.00;101950.31;2613852;36;20001;-51
2022/05/17 01:44:48;;;;;;;;;;;;;;;12.68;100.00;101954.38;2613529;36;19982;-50
2022/05/17 01:47:16;;;;;;;;;;;;;;;12.60;100.00;101950.44;2613554;36;19951;-51
2022/05/17 01:49:44;;;;;;;;;;;;;;;12.64;100.00;101950.22;2612914;36;19950;-49
2022/05/17 01:52:13;;;;;;;;;;;;;;;12.70;100.00;101957.81;2613534;31;20049;-49
2022/05/17 01:54:41;;;;;;;;;;;;;;;12.70;100.00;101965.91;2611692;36;20464;-48
2022/05/17 01:57:12;;;;;;;;;;;;;;;12.60;100.00;101950.44;2610689;36;20540;-54
2022/05/17 01:59:40;;;;;;;;;;;;;;;12.65;100.00;101951.91;2609796;36;21247;-49
2022/05/17 02:02:08;;;;;;;;;;;;;;;12.60;100.00;101953.16;2608016;36;20001;-53
2022/05/17 02:04:36;;;;;;;;;;;;;;;12.57;100.00;101950.69;2608116;36;20073;-51
2022/05/17 02:07:04;;;;;;;;;;;;;;;12.62;100.00;101953.88;2609985;36;20330;-47
2022/05/17 02:09:32;;;;;;;;;;;;;;;12.65;100.00;101960.88;2608610;31;20081;-50
2022/05/17 02:12:00;;;;;;;;;;;;;;;12.60;100.00;101961.25;2608208;36;20389;-50
2022/05/17 02:14:31;;;;;;;;;;;;;;;12.62;100.00;101956.59;2608021;36;20046;-49
2022/05/17 02:17:01;;;;;;;;;;;;;;;12.56;100.00;101958.94;2608669;31;19957;-53
2022/05/17 02:19:29;;;;;;;;;;;;;;;12.57;100.00;101953.41;2608709;36;19951;-48
2022/05/17 02:21:57;;;;;;;;;;;;;;;12.62;100.00;101959.28;2608004;31;19947;-48
2022/05/17 02:24:27;;;;;;;;;;;;;;;12.64;100.00;101963.72;2608543;36;20076;-52
2022/05/17 02:26:56;;;;;;;;;;;;;;;12.60;100.00;101966.66;2607433;36;19954;-48
2022/05/17 02:29:24;;;;;;;;;;;;;;;12.64;100.00;101971.81;2602169;31;19947;-50
2022/05/17 02:31:55;;;;;;;;;;;;;;;12.59;100.00;101969.47;2607367;36;19957;-50
2022/05/17 02:34:23;;;;;;;;;;;;;;;12.57;100.00;101966.03;2609144;31;19946;-51
2022/05/17 02:36:51;;;;;;;;;;;;;;;12.62;100.00;101970.09;2608160;36;20468;-49
2022/05/17 02:39:19;;;;;;;;;;;;;;;12.73;100.00;101977.31;2608084;36;20426;-50
2022/05/17 02:41:48;;;;;;;;;;;;;;;12.66;100.00;101961.72;2608032;36;20420;-52
2022/05/17 02:44:16;;;;;;;;;;;;;;;12.69;100.00;101965.06;2608087;36;19972;-47
2022/05/17 02:46:44;;;;;;;;;;;;;;;12.78;100.00;101968.88;2608752;36;20038;-48
2022/05/17 02:49:14;;;;;;;;;;;;;;;12.72;100.00;101978.31;2608371;36;19954;-47
2022/05/17 02:51:42;;;;;;;;;;;;;;;12.71;100.00;101979.28;2608316;36;20324;-52
2022/05/17 02:54:10;;;;;;;;;;;;;;;12.72;100.00;101980.16;2607757;31;20038;-51
2022/05/17 02:56:39;;;;;;;;;;;;;;;12.69;100.00;101981.28;2608480;36;20070;-49
2022/05/17 02:59:07;;;;;;;;;;;;;;;12.71;100.00;101978.44;2607712;36;19946;-48
2022/05/17 03:01:35;;;;;;;;;;;;;;;12.71;100.00;101982.00;2609139;36;19951;-48
2022/05/17 03:04:03;;;;;;;;;;;;;;;12.62;100.00;101974.63;2607301;36;19946;-49
2022/05/17 03:06:34;;;;;;;;;;;;;;;12.64;100.00;101983.47;2607984;36;19957;-48
2022/05/17 03:09:02;;;;;;;;;;;;;;;12.61;100.00;101989.97;2608314;36;20447;-49
2022/05/17 03:11:30;;;;;;;;;;;;;;;12.54;100.00;101987.88;2607714;36;20640;-48
2022/05/17 03:13:58;;;;;;;;;;;;;;;12.52;100.00;101985.31;2608442;36;19985;-50
2022/05/17 03:16:30;;;;;;;;;;;;;;;12.54;100.00;101988.72;2608247;36;20761;-50
2022/05/17 03:18:58;;;;;;;;;;;;;;;12.51;100.00;101978.16;2608646;36;19951;-51
2022/05/17 03:21:26;;;;;;;;;;;;;;;12.50;100.00;101981.88;2608339;36;20038;-49
2022/05/17 03:23:57;;;;;;;;;;;;;;;12.52;100.00;101976.34;2609194;36;19947;-47
2022/05/17 03:26:25;;;;;;;;;;;;;;;12.53;100.00;101978.94;2608598;36;19977;-51
2022/05/17 03:28:53;;;;;;;;;;;;;;;12.58;100.00;101984.81;2607773;36;20054;-53
2022/05/17 03:31:21;;;;;;;;;;;;;;;12.53;100.00;101970.81;2609449;31;19947;-48
2022/05/17 03:33:50;;;;;;;;;;;;;;;12.53;100.00;101976.22;2608429;36;19954;-50
2022/05/17 03:36:18;;;;;;;;;;;;;;;12.55;100.00;101979.66;2608968;36;20456;-50
2022/05/17 03:38:46;;;;;;;;;;;;;;;12.60;100.00;101977.47;2608026;31;20052;-51
2022/05/17 03:41:16;;;;;;;;;;;;;;;12.63;100.00;101987.13;2609041;36;20441;-50
2022/05/17 03:43:44;;;;;;;;;;;;;;;12.68;100.00;101989.50;2607802;36;20049;-50
2022/05/17 03:46:13;;;;;;;;;;;;;;;12.68;100.00;101989.50;2608187;36;20069;-49
2022/05/17 03:48:41;;;;;;;;;;;;;;;12.76;100.00;101995.13;2607542;36;19947;-47
2022/05/17 03:51:15;;;;;;;;;;;;;;;12.76;100.00;101987.91;2608330;36;19950;-47
2022/05/17 03:53:43;;;;;;;;;;;;;;;12.78;100.00;101996.75;2608342;36;20528;-48
2022/05/17 03:56:12;;;;;;;;;;;;;;;12.73;100.00;101981.88;2608954;36;20433;-49
2022/05/17 03:58:42;;;;;;;;;;;;;;;12.85;100.00;101993.53;2608096;36;20076;-48
2022/05/17 04:01:10;;;;;;;;;;;;;;;12.90;100.00;101996.75;2608040;36;19951;-50
2022/05/17 04:03:39;;;;;;;;;;;;;;;13.04;100.00;101992.91;2608352;36;20544;-53
2022/05/17 04:06:07;;;;;;;;;;;;;;;13.04;100.00;101995.63;2607727;36;19947;-52
2022/05/17 04:08:36;;;;;;;;;;;;;;;13.14;100.00;101996.59;2608320;36;19954;-50
2022/05/17 04:11:04;;;;;;;;;;;;;;;13.19;100.00;102002.50;2608151;36;19953;-49
2022/05/17 04:13:32;;;;;;;;;;;;;;;13.23;100.00;101990.41;2608218;36;20482;-53
2022/05/17 04:16:04;;;;;;;;;;;;;;;13.38;100.00;101993.72;2607918;36;20033;-51
2022/05/17 04:18:32;;;;;;;;;;;;;;;13.30;100.00;101996.19;2609512;36;19990;-53
2022/05/17 04:21:00;;;;;;;;;;;;;;;13.38;100.00;101993.72;2607280;36;19955;-49
2022/05/17 04:23:29;;;;;;;;;;;;;;;13.32;100.00;101995.09;2608113;36;19954;-55
2022/05/17 04:25:57;;;;;;;;;;;;;;;13.46;100.00;102001.25;2607923;36;19962;-49
2022/05/17 04:28:26;;;;;;;;;;;;;;;13.47;100.00;101997.53;2608738;31;19985;-53
2022/05/17 04:30:54;;;;;;;;;;;;;;;13.57;100.00;101998.47;2607081;36;20085;-52
2022/05/17 04:33:25;;;;;;;;;;;;;;;13.66;100.00;101997.72;2602554;36;19950;-49
2022/05/17 04:35:53;;;;;;;;;;;;;;;13.74;100.00;102001.66;2607846;36;19950;-48
2022/05/17 04:38:21;;;;;;;;;;;;;;;13.66;100.00;102003.16;2607656;36;20057;-48
2022/05/17 04:40:50;;;;;;;;;;;;;;;13.72;100.00;102006.31;2606746;36;20073;-54
2022/05/17 04:43:18;;;;;;;;;;;;;;;13.75;100.00;101998.81;2607908;36;19957;-50
2022/05/17 04:45:46;;;;;;;;;;;;;;;13.84;100.00;101999.88;2607848;36;20501;-51
2022/05/17 04:48:15;;;;;;;;;;;;;;;13.86;100.00;101989.78;2608606;31;19953;-51
2022/05/17 04:50:45;;;;;;;;;;;;;;;13.91;100.00;102006.47;2608760;36;19963;-50
2022/05/17 04:53:13;;;;;;;;;;;;;;;13.94;100.00;102006.22;2608015;36;20774;-49
2022/05/17 04:55:41;;;;;;;;;;;;;;;14.01;100.00;102009.25;2607706;36;19977;-49
2022/05/17 04:58:09;;;;;;;;;;;;;;;14.19;100.00;102026.66;2607438;36;19950;-51
2022/05/17 05:00:37;;;;;;;;;;;;;;;14.20;100.00;102024.78;2607887;36;20097;-50
2022/05/17 05:03:05;;;;;;;;;;;;;;;14.16;100.00;102026.03;2607845;36;19969;-51
2022/05/17 05:05:33;;;;;;;;;;;;;;;14.33;100.00;102011.91;2607590;36;20408;-48
2022/05/17 05:08:04;;;;;;;;;;;;;;;14.52;100.00;102021.16;2607155;36;20818;-48
2022/05/17 05:10:32;;;;;;;;;;;;;;;14.59;100.00;102011.50;2607819;36;20055;-50
2022/05/17 05:13:00;;;;;;;;;;;;;;;14.67;100.00;102021.72;2608533;36;20106;-48
2022/05/17 05:15:28;;;;;;;;;;;;;;;14.76;100.00;102020.03;2608459;36;20609;-52
2022/05/17 05:17:59;;;;;;;;;;;;;;;14.80;100.00;102027.75;2609317;36;20077;-50
2022/05/17 05:20:30;;;;;;;;;;;;;;;14.85;100.00;102024.63;2608300;36;20071;-47
2022/05/17 05:22:58;;;;;;;;;;;;;;;14.84;100.00;102031.03;2608627;36;19980;-53
2022/05/17 05:25:29;;;;;;;;;;;;;;;14.95;100.00;102035.53;2612225;36;20058;-51
2022/05/17 05:27:57;;;;;;;;;;;;;;;14.98;100.00;102041.53;2612869;36;20529;-48
2022/05/17 05:30:25;;;;;;;;;;;;;;;14.87;100.00;102041.66;2611727;31;20423;-50
2022/05/17 05:32:53;;;;;;;;;;;;;;;14.78;100.00;102042.44;2613409;31;20419;-48
2022/05/17 05:35:24;;;;;;;;;;;;;;;14.91;100.00;102034.94;2612633;36;20053;-54
2022/05/17 05:37:52;;;;;;;;;;;;;;;14.99;100.00;102045.13;2613080;31;19966;-48
2022/05/17 05:40:20;;;;;;;;;;;;;;;15.05;100.00;102039.16;2611202;36;20106;-49
2022/05/17 05:42:51;;;;;;;;;;;;;;;15.23;100.00;102042.06;2610470;36;20038;-49
2022/05/17 05:45:19;;;;;;;;;;;;;;;15.25;100.00;102042.75;2611269;36;19947;-48
2022/05/17 05:47:47;;;;;;;;;;;;;;;15.20;100.00;102050.47;2609330;36;20588;-51
2022/05/17 05:50:15;;;;;;;;;;;;;;;15.17;100.00;102046.16;2611175;36;20009;-49
2022/05/17 05:52:44;;;;;;;;;;;;;;;15.27;100.00;102045.34;2612801;36;20386;-51
2022/05/17 05:55:17;;;;;;;;;;;;;;;15.40;100.00;102044.13;2612861;36;19957;-48
2022/05/17 05:57:45;;;;;;;;;;;;;;;15.47;100.00;102055.25;2612721;36;19955;-48
2022/05/17 06:00:16;;;;;;;;;;;;;;;15.57;100.00;102044.44;2612226;36;20063;-49
2022/05/17 06:02:44;;;;;;;;;;;;;;;15.76;100.00;102044.44;2612880;36;19951;-50
2022/05/17 06:05:12;;;;;;;;;;;;;;;15.81;100.00;102045.91;2612372;36;20129;-50
2022/05/17 06:07:40;;;;;;;;;;;;;;;15.97;100.00;102040.78;2612808;36;19955;-52
2022/05/17 06:10:09;;;;;;;;;;;;;;;15.89;100.00;102046.94;2612165;36;20091;-52
2022/05/17 06:12:37;;;;;;;;;;;;;;;15.91;100.00;102042.19;2612666;36;20049;-47
2022/05/17 06:15:06;;;;;;;;;;;;;;;16.03;100.00;102050.22;2612350;36;20514;-50
2022/05/17 06:17:37;;;;;;;;;;;;;;;16.15;100.00;102049.09;2612657;31;19973;-57
2022/05/17 06:20:07;;;;;;;;;;;;;;;16.32;100.00;102049.34;2613040;36;20001;-50
2022/05/17 06:22:35;;;;;;;;;;;;;;;16.23;100.00;102053.78;2613986;36;19993;-49
2022/05/17 06:25:03;;;;;;;;;;;;;;;16.04;100.00;102047.34;2613684;31;20459;-50
2022/05/17 06:27:31;;;;;;;;;;;;;;;16.01;100.00;102057.66;2613830;36;20009;-48
2022/05/17 06:29:59;;;;;;;;;;;;;;;16.00;100.00;102055.94;2613593;36;20478;-48
2022/05/17 06:32:27;;;;;;;;;;;;;;;16.17;100.00;102047.06;2614020;36;19947;-49
2022/05/17 06:34:58;;;;;;;;;;;;;;;16.04;100.00;102052.78;2614410;31;20119;-50
2022/05/17 06:37:26;;;;;;;;;;;;;;;15.88;100.00;102057.94;2613935;36;20336;-51
2022/05/17 06:39:55;;;;;;;;;;;;;;;15.89;100.00;102057.78;2613722;36;19947;-50
2022/05/17 06:42:23;;;;;;;;;;;;;;;15.76;100.00;102068.88;2613585;36;19961;-53
2022/05/17 06:44:51;;;;;;;;;;;;;;;15.85;100.00;102069.06;2613515;36;20355;-52
2022/05/17 06:47:19;;;;;;;;;;;;;;;16.04;100.00;102066.38;2613488;36;19958;-52
2022/05/17 06:49:47;;;;;;;;;;;;;;;15.98;100.00;102066.09;2612984;36;20453;-52
2022/05/17 06:52:18;;;;;;;;;;;;;;;16.06;100.00;102069.81;2612633;36;19958;-53
2022/05/17 06:54:47;;;;;;;;;;;;;;;16.02;100.00;102062.94;2613487;36;19946;-50
2022/05/17 06:57:16;;;;;;;;;;;;;;;16.16;100.00;102077.09;2613921;36;20339;-51
2022/05/17 06:59:45;;;;;;;;;;;;;;;16.09;100.00;102074.97;2614002;36;19955;-50
2022/05/17 07:02:13;;;;;;;;;;;;;;;16.29;100.00;102077.66;2613402;36;20501;-52
2022/05/17 07:04:42;;;;;;;;;;;;;;;16.40;100.00;102065.78;2612890;36;20074;-54
2022/05/17 07:07:10;;;;;;;;;;;;;;;16.53;100.00;102073.63;2612577;36;20479;-49
2022/05/17 07:13:07;;;;;;;;;;;;;;;16.38;100.00;102070.50;2612235;36;20579;-51
2022/05/17 07:15:11;;;;;;;;;;;;;;;16.24;100.00;102077.25;2613218;36;19950;-48
2022/05/17 07:17:39;;;;;;;;;;;;;;;16.36;100.00;102081.53;2613803;31;20423;-48
2022/05/17 07:20:09;;;;;;;;;;;;;;;16.34;100.00;102079.94;2613895;36;19947;-49
2022/05/17 07:22:37;;;;;;;;;;;;;;;16.35;100.00;102081.66;2613516;36;20413;-49
2022/05/17 07:25:08;;;;;;;;;;;;;;;16.56;100.00;102085.09;2613678;36;19946;-52
2022/05/17 07:27:36;;;;;;;;;;;;;;;16.67;100.00;102092.22;2613577;36;19970;-53
2022/05/17 07:30:04;;;;;;;;;;;;;;;16.61;100.00;102093.66;2613730;36;20000;-53
2022/05/17 07:32:32;;;;;;;;;;;;;;;16.64;100.00;102100.66;2613814;36;19951;-48
2022/05/17 07:35:00;;;;;;;;;;;;;;;16.74;100.00;102106.06;2614327;36;20483;-53
2022/05/17 07:37:29;;;;;;;;;;;;;;;16.57;100.00;102110.41;2613793;36;19950;-50
2022/05/17 07:39:57;;;;;;;;;;;;;;;16.65;100.00;102115.94;2613756;36;20490;-53
2022/05/17 07:42:28;;;;;;;;;;;;;;;16.69;100.00;102111.94;2613507;36;19977;-49
2022/05/17 07:44:56;;;;;;;;;;;;;;;16.89;100.00;102111.94;2613716;36;19947;-51
2022/05/17 07:47:24;;;;;;;;;;;;;;;16.70;100.00;102110.94;2614500;36;20028;-50
2022/05/17 07:49:52;;;;;;;;;;;;;;;16.73;100.00;102115.25;2613668;36;20053;-50
2022/05/17 07:52:20;;;;;;;;;;;;;;;17.02;100.00;102108.88;2613541;36;20439;-53
2022/05/17 07:54:48;;;;;;;;;;;;;;;16.85;100.00;102110.50;2613700;36;20054;-50
2022/05/17 07:57:16;;;;;;;;;;;;;;;16.85;100.00;102107.78;2613634;36;20440;-55
2022/05/17 07:59:47;;;;;;;;;;;;;;;16.93;100.00;102099.75;2613904;36;20275;-51
2022/05/17 08:02:15;;;;;;;;;;;;;;;17.20;100.00;102076.34;2613947;36;19988;-52
2022/05/17 08:04:43;;;;;;;;;;;;;;;17.49;100.00;102077.03;2613883;36;19947;-52
2022/05/17 08:07:11;;;;;;;;;;;;;;;17.68;100.00;102089.69;2613651;36;20547;-51
2022/05/17 08:09:39;;;;;;;;;;;;;;;17.65;100.00;102090.00;2606182;36;20573;-51
2022/05/17 08:12:10;;;;;;;;;;;;;;;17.64;100.00;102090.16;2613877;36;20552;-50
2022/05/17 08:14:39;;;;;;;;;;;;;;;17.40;100.00;102094.28;2614115;36;20394;-49
2022/05/17 08:17:10;;;;;;;;;;;;;;;17.30;100.00;102094.31;2613855;36;20084;-51
2022/05/17 08:19:39;;;;;;;;;;;;;;;17.39;100.00;102095.28;2613624;36;20082;-54
2022/05/17 08:22:08;;;;;;;;;;;;;;;17.64;100.00;102111.94;2613180;31;20061;-49
2022/05/17 08:30:00;;;;;;;;;;;;;;;17.26;100.00;102102.94;2613818;36;19950;-53
2022/05/17 08:35:11;;;;;;;;;;;;;;;17.42;100.00;102102.31;2613542;36;19947;-51
2022/05/17 08:37:39;;;;;;;;;;;;;;;17.36;100.00;102102.88;2613088;31;19950;-49
2022/05/17 08:40:08;;;;;;;;;;;;;;;17.10;100.00;102107.13;2613132;36;20046;-49
2022/05/17 08:42:43;;;;;;;;;;;;;;;17.21;100.00;102100.69;2613374;36;19951;-51
2022/05/17 08:45:14;;;;;;;;;;;;;;;17.30;100.00;102098.91;2613483;36;19981;-52
2022/05/17 08:47:49;;;;;;;;;;;;;;;17.36;100.00;102103.75;2613702;36;20034;-51
2022/05/17 08:50:19;;;;;;;;;;;;;;;17.53;100.00;102099.34;2613325;36;19950;-52
2022/05/17 08:52:47;;;;;;;;;;;;;;;17.55;100.00;102100.09;2613372;36;20637;-48
2022/05/17 08:55:19;;;;;;;;;;;;;;;17.52;100.00;102098.50;2613319;36;19972;-49
2022/05/17 08:57:50;;;;;;;;;;;;;;;17.65;100.00;102102.72;2613943;36;20106;-49
2022/05/17 09:00:20;;;;;;;;;;;;;;;17.55;100.00;102101.94;2613228;36;20053;-52
2022/05/17 09:02:52;;;;;;;;;;;;;;;17.65;100.00;102105.44;2613420;36;19954;-52
2022/05/17 09:05:30;;;;;;;;;;;;;;;17.74;100.00;102107.28;2612149;36;20042;-54
2022/05/17 09:08:03;;;;;;;;;;;;;;;17.49;100.00;102109.72;2613634;36;20427;-49
2022/05/17 09:10:35;;;;;;;;;;;;;;;17.23;100.00;102108.69;2613073;36;19981;-49
2022/05/17 09:13:07;;;;;;;;;;;;;;;17.39;100.00;102111.63;2613643;36;20454;-51
2022/05/17 09:15:35;;;;;;;;;;;;;;;17.67;100.00;102109.75;2613550;36;19951;-53
2022/05/17 09:18:09;;;;;;;;;;;;;;;17.49;100.00;102106.09;2610229;36;20034;-50
2022/05/17 09:20:38;;;;;;;;;;;;;;;17.45;100.00;102115.59;2612828;36;19977;-52
2022/05/17 09:23:07;;;;;;;;;;;;;;;17.46;100.00;102112.72;2610211;36;20472;-50
2022/05/17 09:25:49;;;;;;;;;;;;;;;17.45;100.00;102115.59;2612269;36;19992;-50
2022/05/17 09:28:20;;;;;;;;;;;;;;;17.88;100.00;102118.66;2610203;36;19968;-50
2022/05/17 09:30:48;;;;;;;;;;;;;;;18.10;100.00;102112.78;2611749;36;19947;-52
2022/05/17 09:33:23;;;;;;;;;;;;;;;18.56;100.00;102107.22;2613327;31;19946;-51
2022/05/17 09:36:00;;;;;;;;;;;;;;;18.88;100.00;102106.63;2613000;36;20291;-49
2022/05/17 09:38:31;;;;;;;;;;;;;;;18.86;100.00;102108.69;2613809;31;19946;-50
2022/05/17 09:40:59;;;;;;;;;;;;;;;18.73;100.00;102105.50;2613076;36;19973;-50
2022/05/17 09:43:36;;;;;;;;;;;;;;;18.75;100.00;102106.16;2613481;36;19947;-51
2022/05/17 09:46:11;;;;;;;;;;;;;;;18.59;100.00;102108.78;2613567;36;20054;-52
2022/05/17 09:54:05;;;;;;;;;;;;;;;19.12;100.00;102102.34;2613242;31;19965;-52
2022/05/17 09:56:33;;;;;;;;;;;;;;;19.16;100.00;102109.19;2613864;36;19965;-50
2022/05/17 09:59:01;;;;;;;;;;;;;;;19.03;100.00;102100.59;2614020;36;20070;-54
2022/05/17 10:01:30;;;;;;;;;;;;;;;19.23;100.00;102091.16;2614285;36;20049;-53
2022/05/17 10:04:06;;;;;;;;;;;;;;;19.67;100.00;102094.72;2613980;36;20814;-51
2022/05/17 10:06:36;;;;;;;;;;;;;;;19.66;100.00;102088.41;2613801;36;20085;-53
2022/05/17 10:09:05;;;;;;;;;;;;;;;19.57;100.00;102086.69;2613884;36;19947;-52
2022/05/17 10:11:42;;;;;;;;;;;;;;;18.71;100.00;102094.75;2593329;36;20474;-53
2022/05/17 10:14:15;;;;;;;;;;;;;;;19.15;100.00;102093.81;2608613;36;19958;-52
2022/05/17 10:16:50;;;;;;;;;;;;;;;19.73;100.00;102094.91;2614205;54;19946;-51
2022/05/17 10:19:24;;;;;;;;;;;;;;;20.35;100.00;102095.56;2611963;36;19950;-55
2022/05/17 10:21:54;;;;;;;;;;;;;;;20.50;100.00;102090.25;2612718;36;20332;-50
2022/05/17 10:24:27;;;;;;;;;;;;;;;20.43;100.00;102084.59;2612479;36;20094;-51
2022/05/17 10:27:00;;;;;;;;;;;;;;;20.75;100.00;102082.91;2612191;36;19990;-53
2022/05/17 10:29:30;;;;;;;;;;;;;;;20.43;100.00;102079.13;2613567;36;20089;-51
2022/05/17 10:32:01;;;;;;;;;;;;;;;20.65;100.00;102081.16;2614221;31;20586;-56
2022/05/17 10:34:44;;;;;;;;;;;;;;;21.19;100.00;102087.91;2610766;36;20065;-51
2022/05/17 10:37:15;;;;;;;;;;;;;;;21.91;100.00;102089.66;2613701;31;20415;-52
2022/05/17 10:39:47;;;;;;;;;;;;;;;21.76;100.00;102078.59;2611992;36;20041;-53
2022/05/17 10:42:15;;;;;;;;;;;;;;;22.11;100.00;102078.19;2608634;36;20452;-51
2022/05/17 10:44:45;;;;;;;;;;;;;;;22.49;100.00;102075.50;2611436;36;19958;-49
2022/05/17 10:47:19;;;;;;;;;;;;;;;21.65;100.00;102074.38;2613274;36;19985;-49
2022/05/17 10:49:57;;;;;;;;;;;;;;;21.22;100.00;102068.41;2612400;36;19961;-49
2022/05/17 10:52:30;;;;;;;;;;;;;;;21.41;100.00;102066.28;2609836;36;20017;-52
2022/05/17 10:55:05;;;;;;;;;;;;;;;21.68;100.00;102071.25;2612750;36;20073;-49
2022/05/17 10:57:40;;;;;;;;;;;;;;;22.31;100.00;102073.91;2611710;36;20298;-49
2022/05/17 11:00:14;;;;;;;;;;;;;;;22.73;100.00;102066.16;2611409;36;20053;-54
2022/05/17 11:02:52;;;;;;;;;;;;;;;23.00;100.00;102058.34;2613255;36;19973;-54
2022/05/17 11:05:30;;;;;;;;;;;;;;;22.48;100.00;102058.19;2612542;36;20077;-52
2022/05/17 11:08:04;;;;;;;;;;;;;;;21.87;100.00;102049.91;2613878;31;20549;-51
2022/05/17 11:10:41;;;;;;;;;;;;;;;21.61;100.00;102061.22;2612902;36;20054;-55
2022/05/17 11:13:13;;;;;;;;;;;;;;;22.58;100.00;102052.44;2613377;36;19977;-54
2022/05/17 11:15:42;;;;;;;;;;;;;;;22.37;100.00;102055.91;2613234;36;20085;-53
2022/05/17 11:18:15;;;;;;;;;;;;;;;22.71;100.00;102047.16;2612900;31;20053;-55
2022/05/17 11:20:47;;;;;;;;;;;;;;;22.65;100.00;102042.41;2613925;36;20082;-57
2022/05/17 11:23:26;;;;;;;;;;;;;;;22.55;100.00;102041.84;2612950;36;20077;-52
2022/05/17 11:26:05;;;;;;;;;;;;;;;23.13;100.00;102038.47;2613007;36;19976;-55
2022/05/17 11:28:44;;;;;;;;;;;;;;;24.16;100.00;102030.13;2612317;31;20086;-56
2022/05/17 11:31:15;;;;;;;;;;;;;;;24.98;100.00;102028.59;2613279;36;19950;-51
2022/05/17 11:33:44;;;;;;;;;;;;;;;24.58;100.00;102025.59;2612290;36;20034;-53
2022/05/17 11:36:16;;;;;;;;;;;;;;;24.64;100.00;102024.81;2612727;36;20089;-49
2022/05/17 11:38:53;;;;;;;;;;;;;;;23.73;100.00;102029.06;2613099;36;20481;-54
2022/05/17 11:41:23;;;;;;;;;;;;;;;23.33;100.00;102027.75;2613102;36;20098;-52
2022/05/17 11:43:53;;;;;;;;;;;;;;;23.20;100.00;102022.94;2612987;36;19962;-52
2022/05/17 11:46:37;;;;;;;;;;;;;;;23.94;100.00;102022.75;2613258;36;19951;-49
2022/05/17 11:49:21;;;;;;;;;;;;;;;24.51;100.00;102019.19;2613091;36;19954;-52
2022/05/17 11:52:04;;;;;;;;;;;;;;;24.14;100.00;102019.31;2612949;36;19971;-51
2022/05/17 11:54:45;;;;;;;;;;;;;;;24.15;100.00;102018.28;2612337;36;20105;-53
2022/05/17 11:57:14;;;;;;;;;;;;;;;24.47;100.00;102014.09;2613689;36;19954;-53
2022/05/17 11:59:45;;;;;;;;;;;;;;;24.07;100.00;102008.28;2612542;36;20053;-51
2022/05/17 12:02:14;;;;;;;;;;;;;;;23.18;100.00;102008.56;2613247;36;19957;-52
2022/05/17 12:04:44;;;;;;;;;;;;;;;23.77;100.00;102013.84;2612713;36;19983;-51
2022/05/17 12:07:23;;;;;;;;;;;;;;;24.16;100.00;102005.34;2612582;31;19954;-50
2022/05/17 12:09:54;;;;;;;;;;;;;;;24.01;100.00;102003.53;2613467;36;20034;-52
2022/05/17 12:12:43;;;;;;;;;;;;;;;23.70;100.00;101996.44;2611807;31;20038;-53
2022/05/17 12:15:36;;;;;;;;;;;;;;;24.27;100.00;101989.16;2612930;36;19950;-52
2022/05/17 12:18:12;;;;;;;;;;;;;;;24.01;100.00;101989.78;2613167;36;20471;-50
2022/05/17 12:20:47;;;;;;;;;;;;;;;24.39;100.00;101981.19;2613375;36;19946;-51
2022/05/17 12:23:18;;;;;;;;;;;;;;;24.45;100.00;101971.28;2612861;36;19993;-54
2022/05/17 12:25:54;;;;;;;;;;;;;;;25.39;100.00;101978.16;2613616;36;19962;-50
2022/05/17 12:28:23;;;;;;;;;;;;;;;25.16;99.62;101979.34;2613553;31;20467;-55
2022/05/17 12:30:53;;;;;;;;;;;;;;;25.30;100.00;101969.22;2613249;36;19963;-54
2022/05/17 12:33:22;;;;;;;;;;;;;;;25.09;98.42;101967.44;2612790;36;20409;-50
2022/05/17 12:35:50;;;;;;;;;;;;;;;25.21;100.00;101967.69;2613210;36;20043;-52
2022/05/17 12:43:52;;;;;;;;;;;;;;;24.75;100.00;101962.81;2613056;31;19993;-53
2022/05/17 12:46:24;;;;;;;;;;;;;;;24.52;100.00;101961.19;2610551;36;19957;-51
2022/05/17 12:48:53;;;;;;;;;;;;;;;25.63;93.24;101962.97;2611530;36;20325;-54
2022/05/17 12:51:24;;;;;;;;;;;;;;;26.14;99.37;101960.66;2612191;36;20005;-57
2022/05/17 12:53:53;;;;;;;;;;;;;;;27.15;82.79;101952.94;2611246;36;20069;-52
2022/05/17 12:56:35;;;;;;;;;;;;;;;27.24;83.93;101946.94;2612210;36;19954;-51
2022/05/17 12:59:05;;;;;;;;;;;;;;;27.88;77.13;101938.66;2610859;36;20094;-54
2022/05/17 13:01:38;;;;;;;;;;;;;;;28.19;69.06;101923.06;2611699;36;20451;-53
2022/05/17 13:04:09;;;;;;;;;;;;;;;27.89;74.62;101934.81;2613110;36;20468;-54